createdAt,value
2023-11-24T00:01:55.602Z,6.31
2023-11-24T00:04:23.395Z,6.28
2023-11-24T00:06:52.184Z,6.32
2023-11-24T00:09:19.795Z,6.36
2023-11-24T00:11:48.755Z,6.36
2023-11-24T00:14:17.151Z,6.36
2023-11-24T00:16:44.846Z,6.35
2023-11-24T00:19:15.033Z,6.37
2023-11-24T00:21:43.149Z,6.39
2023-11-24T00:24:12.060Z,6.44
2023-11-24T00:26:39.622Z,6.40
2023-11-24T00:29:09.047Z,6.48
2023-11-24T00:31:37.470Z,6.45
2023-11-24T00:34:05.267Z,6.44
2023-11-24T00:36:33.666Z,6.45
2023-11-24T00:39:01.251Z,6.48
2023-11-24T00:41:29.965Z,6.48
2023-11-24T00:43:57.565Z,6.49
2023-11-24T00:46:26.452Z,6.51
2023-11-24T00:48:54.030Z,6.45
2023-11-24T00:51:21.729Z,6.59
2023-11-24T00:53:49.256Z,6.57
2023-11-24T00:56:16.826Z,6.63
2023-11-24T00:58:44.750Z,6.69
2023-11-24T01:01:12.915Z,6.70
2023-11-24T01:03:42.124Z,6.70
2023-11-24T01:06:11.170Z,6.64
2023-11-24T01:08:38.715Z,6.66
2023-11-24T01:11:06.627Z,6.65
2023-11-24T01:13:36.229Z,6.74
2023-11-24T01:16:05.200Z,6.71
2023-11-24T01:18:34.878Z,6.78
2023-11-24T01:21:07.893Z,6.79
2023-11-24T01:23:36.479Z,6.76
2023-11-24T01:26:04.407Z,6.72
2023-11-24T01:28:35.262Z,6.85
2023-11-24T01:31:06.633Z,6.81
2023-11-24T01:33:34.308Z,6.79
2023-11-24T01:36:03.368Z,6.81
2023-11-24T01:38:30.960Z,6.83
2023-11-24T01:40:58.552Z,6.77
2023-11-24T01:43:26.321Z,6.78
2023-11-24T01:45:54.115Z,6.80
2023-11-24T01:48:21.806Z,6.90
2023-11-24T01:50:50.466Z,6.89
2023-11-24T01:53:20.770Z,6.85
2023-11-24T01:55:48.604Z,6.77
2023-11-24T01:58:17.670Z,6.75
2023-11-24T02:00:46.836Z,6.76
2023-11-24T02:03:14.577Z,6.78
2023-11-24T02:05:42.627Z,6.78
2023-11-24T02:08:11.222Z,6.74
2023-11-24T02:10:40.443Z,6.77
2023-11-24T02:13:11.452Z,6.74
2023-11-24T02:15:40.141Z,6.75
2023-11-24T02:18:07.613Z,6.81
2023-11-24T02:20:35.458Z,6.78
2023-11-24T02:23:04.333Z,6.78
2023-11-24T02:25:31.969Z,6.78
2023-11-24T02:27:59.571Z,6.80
2023-11-24T02:30:27.258Z,6.84
2023-11-24T02:32:55.168Z,6.81
2023-11-24T02:35:22.775Z,6.78
2023-11-24T02:37:50.335Z,6.84
2023-11-24T02:40:19.735Z,6.86
2023-11-24T02:42:47.633Z,6.86
2023-11-24T02:45:15.364Z,6.86
2023-11-24T02:47:43.025Z,6.85
2023-11-24T02:50:11.117Z,6.86
2023-11-24T02:52:38.651Z,6.94
2023-11-24T02:55:07.469Z,6.90
2023-11-24T02:57:36.429Z,7.00
2023-11-24T03:00:06.350Z,6.99
2023-11-24T03:02:34.124Z,7.05
2023-11-24T03:05:01.799Z,6.93
2023-11-24T03:07:29.438Z,6.95
2023-11-24T03:09:57.116Z,7.07
2023-11-24T03:12:24.708Z,6.39
2023-11-24T03:14:55.063Z,5.44
2023-11-24T03:17:23.044Z,4.93
2023-11-24T03:19:50.615Z,5.12
2023-11-24T03:22:18.234Z,4.88
2023-11-24T03:24:45.808Z,4.87
2023-11-24T03:27:13.430Z,4.93
2023-11-24T03:29:42.143Z,4.94
2023-11-24T03:32:11.146Z,4.98
2023-11-24T03:34:38.944Z,5.13
2023-11-24T03:37:06.761Z,5.18
2023-11-24T03:39:35.968Z,5.13
2023-11-24T03:42:06.241Z,5.24
2023-11-24T03:44:36.185Z,5.25
2023-11-24T03:47:03.923Z,5.24
2023-11-24T03:49:33.944Z,5.07
2023-11-24T03:52:02.096Z,5.14
2023-11-24T03:54:29.960Z,5.02
2023-11-24T03:56:57.575Z,5.04
2023-11-24T03:59:26.722Z,5.16
2023-11-24T04:01:54.342Z,5.09
2023-11-24T04:04:21.956Z,5.07
2023-11-24T04:06:50.888Z,5.12
2023-11-24T04:09:18.654Z,5.06
2023-11-24T04:11:46.245Z,5.26
2023-11-24T04:14:13.870Z,5.16
2023-11-24T04:16:44.570Z,5.15
2023-11-24T04:19:12.344Z,5.10
2023-11-24T04:21:42.161Z,5.03
2023-11-24T04:24:11.323Z,5.02
2023-11-24T04:26:39.080Z,5.11
2023-11-24T04:29:06.979Z,5.29
2023-11-24T04:31:34.853Z,5.25
2023-11-24T04:34:03.043Z,5.12
2023-11-24T04:36:31.034Z,5.15
2023-11-24T04:38:58.597Z,5.16
2023-11-24T04:41:30.121Z,5.10
2023-11-24T04:43:57.649Z,5.07
2023-11-24T04:46:25.447Z,5.13
2023-11-24T04:48:53.109Z,5.14
2023-11-24T04:51:20.829Z,5.08
2023-11-24T04:53:48.528Z,5.08
2023-11-24T04:56:16.063Z,5.13
2023-11-24T04:58:44.993Z,5.08
2023-11-24T05:01:13.516Z,5.08
2023-11-24T05:03:41.807Z,5.18
2023-11-24T05:06:09.523Z,5.30
2023-11-24T05:08:37.920Z,5.08
2023-11-24T05:11:05.587Z,5.16
2023-11-24T05:13:33.266Z,5.08
2023-11-24T05:16:02.278Z,5.26
2023-11-24T05:18:29.871Z,5.09
2023-11-24T05:20:57.476Z,5.06
2023-11-24T05:23:25.769Z,5.13
2023-11-24T05:25:54.090Z,5.19
2023-11-24T05:28:21.713Z,5.13
2023-11-24T05:30:49.375Z,5.14
2023-11-24T05:33:18.910Z,5.09
2023-11-24T05:35:46.456Z,5.19
2023-11-24T05:38:13.956Z,5.01
2023-11-24T05:40:44.477Z,5.10
2023-11-24T05:43:12.266Z,5.17
2023-11-24T05:45:39.902Z,5.10
2023-11-24T05:48:07.453Z,4.96
2023-11-24T05:50:36.345Z,4.91
2023-11-24T05:53:03.864Z,5.10
2023-11-24T05:55:31.516Z,5.14
2023-11-24T05:57:59.076Z,5.10
2023-11-24T06:00:26.796Z,5.01
2023-11-24T06:02:54.492Z,4.92
2023-11-24T06:05:22.097Z,4.85
2023-11-24T06:07:54.076Z,4.81
2023-11-24T06:10:23.308Z,4.84
2023-11-24T06:12:50.852Z,4.75
2023-11-24T06:15:18.470Z,4.82
2023-11-24T06:17:46.562Z,4.62
2023-11-24T06:20:14.131Z,4.71
2023-11-24T06:22:41.684Z,4.56
2023-11-24T06:25:14.926Z,4.62
2023-11-24T06:27:43.672Z,4.62
2023-11-24T06:30:11.962Z,4.45
2023-11-24T06:32:39.790Z,4.54
2023-11-24T06:35:08.500Z,4.39
2023-11-24T06:37:36.022Z,4.42
2023-11-24T06:40:05.384Z,4.37
2023-11-24T06:42:34.423Z,4.57
2023-11-24T06:45:04.143Z,4.77
2023-11-24T06:47:31.887Z,4.66
2023-11-24T06:49:59.478Z,4.69
2023-11-24T06:52:27.079Z,4.90
2023-11-24T06:54:54.723Z,5.04
2023-11-24T06:57:22.251Z,4.94
2023-11-24T06:59:51.110Z,5.11
2023-11-24T07:02:18.619Z,4.97
2023-11-24T07:04:46.926Z,4.93
2023-11-24T07:07:16.284Z,5.08
2023-11-24T07:09:43.972Z,4.66
2023-11-24T07:12:13.416Z,4.80
2023-11-24T07:14:40.991Z,4.87
2023-11-24T07:17:09.909Z,4.66
2023-11-24T07:19:37.647Z,4.82
2023-11-24T07:22:05.795Z,5.20
2023-11-24T07:24:33.474Z,5.08
2023-11-24T07:27:01.544Z,4.86
2023-11-24T07:29:29.571Z,4.50
2023-11-24T07:31:57.104Z,4.56
2023-11-24T07:34:26.156Z,4.39
2023-11-24T07:36:54.689Z,4.83
2023-11-24T07:39:24.046Z,4.99
2023-11-24T07:41:51.592Z,5.03
2023-11-24T07:44:19.153Z,5.01
2023-11-24T07:46:46.754Z,5.12
2023-11-24T07:49:14.377Z,5.09
2023-11-24T07:51:43.407Z,4.95
2023-11-24T07:54:11.124Z,5.03
2023-11-24T07:56:38.635Z,5.15
2023-11-24T07:59:06.314Z,4.95
2023-11-24T08:01:34.125Z,5.13
2023-11-24T08:04:02.736Z,5.14
2023-11-24T08:06:30.793Z,5.11
2023-11-24T08:09:02.022Z,5.03
2023-11-24T08:11:29.615Z,5.03
2023-11-24T08:13:57.226Z,5.10
2023-11-24T08:16:25.043Z,5.11
2023-11-24T08:18:53.309Z,5.01
2023-11-24T08:21:20.934Z,4.96
2023-11-24T08:23:48.782Z,5.03
2023-11-24T08:26:18.586Z,4.98
2023-11-24T08:28:46.882Z,4.94
2023-11-24T08:31:18.628Z,5.09
2023-11-24T08:33:46.324Z,5.09
2023-11-24T08:36:14.223Z,5.19
2023-11-24T08:38:42.380Z,5.10
2023-11-24T08:41:23.307Z,5.17
2023-11-24T08:43:59.703Z,5.11
2023-11-24T08:46:27.500Z,5.06
2023-11-24T08:48:55.627Z,5.16
2023-11-24T08:51:23.421Z,5.15
2023-11-24T08:53:50.950Z,5.07
2023-11-24T08:56:18.561Z,4.98
2023-11-24T08:58:46.112Z,5.10
2023-11-24T09:01:15.487Z,5.00
2023-11-24T09:03:43.612Z,5.05
2023-11-24T09:06:11.164Z,5.08
2023-11-24T09:08:39.958Z,5.13
2023-11-24T09:11:08.205Z,5.03
2023-11-24T09:13:35.827Z,5.11
2023-11-24T09:16:04.313Z,5.13
2023-11-24T09:18:33.422Z,5.02
2023-11-24T09:21:01.005Z,5.09
2023-11-24T09:23:28.817Z,5.24
2023-11-24T09:25:56.321Z,5.28
2023-11-24T09:28:23.904Z,5.33
2023-11-24T09:30:51.641Z,5.49
2023-11-24T09:33:19.745Z,5.50
2023-11-24T09:35:48.630Z,5.60
2023-11-24T09:38:16.060Z,5.54
2023-11-24T09:40:45.586Z,5.61
2023-11-24T09:43:14.307Z,5.52
2023-11-24T09:45:42.304Z,5.45
2023-11-24T09:48:12.448Z,5.41
2023-11-24T09:50:42.323Z,5.41
2023-11-24T09:53:14.842Z,5.33
2023-11-24T09:55:42.704Z,5.37
2023-11-24T09:58:11.026Z,5.34
2023-11-24T10:00:38.635Z,5.29
2023-11-24T10:03:08.945Z,5.23
2023-11-24T10:05:36.505Z,5.20
2023-11-24T10:08:04.088Z,5.21
2023-11-24T10:10:33.134Z,5.29
2023-11-24T10:13:03.069Z,5.36
2023-11-24T10:15:31.875Z,5.32
2023-11-24T10:17:59.885Z,5.33
2023-11-24T10:20:29.865Z,5.39
2023-11-24T10:22:59.724Z,5.48
2023-11-24T10:25:27.545Z,5.69
2023-11-24T10:27:59.987Z,5.69
2023-11-24T10:30:27.792Z,5.51
2023-11-24T10:32:55.456Z,5.28
2023-11-24T10:35:23.681Z,5.14
2023-11-24T10:37:51.854Z,4.94
2023-11-24T10:40:19.945Z,4.24
2023-11-24T10:42:51.622Z,3.96
2023-11-24T10:45:22.575Z,3.75
2023-11-24T10:48:02.390Z,3.54
2023-11-24T10:50:30.521Z,3.38
2023-11-24T10:53:08.939Z,3.60
2023-11-24T10:55:38.880Z,3.65
2023-11-24T10:58:07.617Z,3.84
2023-11-24T11:00:38.214Z,3.97
2023-11-24T11:03:07.571Z,4.51
2023-11-24T11:05:52.448Z,4.51
2023-11-24T11:08:29.124Z,4.52
2023-11-24T11:11:22.288Z,4.45
2023-11-24T11:13:52.391Z,4.29
2023-11-24T11:16:21.931Z,4.41
2023-11-24T11:18:50.874Z,4.51
2023-11-24T11:21:18.780Z,4.66
2023-11-24T11:23:46.329Z,4.64
2023-11-24T11:26:46.515Z,4.74
2023-11-24T11:29:17.073Z,4.69
2023-11-24T11:31:47.816Z,4.73
2023-11-24T11:34:17.860Z,4.84
2023-11-24T11:37:08.434Z,4.97
2023-11-24T11:39:38.553Z,5.04
2023-11-24T11:42:10.180Z,5.11
2023-11-24T11:44:40.903Z,4.95
2023-11-24T11:47:21.895Z,4.99
2023-11-24T11:49:52.813Z,4.98
2023-11-24T11:52:22.187Z,5.03
2023-11-24T11:54:51.586Z,5.01
2023-11-24T11:57:20.262Z,5.05
2023-11-24T11:59:48.624Z,5.01
2023-11-24T12:02:22.018Z,5.04
2023-11-24T12:04:50.420Z,4.96
2023-11-24T12:07:20.113Z,4.90
2023-11-24T12:09:48.561Z,4.79
2023-11-24T12:12:16.389Z,4.60
2023-11-24T12:14:44.923Z,4.41
2023-11-24T12:17:13.437Z,4.25
2023-11-24T12:19:44.145Z,3.93
2023-11-24T12:22:12.229Z,4.05
2023-11-24T12:24:41.023Z,3.76
2023-11-24T12:27:10.051Z,3.52
2023-11-24T12:29:39.967Z,3.17
2023-11-24T12:32:13.680Z,3.33
2023-11-24T12:34:47.065Z,3.14
2023-11-24T12:37:15.298Z,3.53
2023-11-24T12:39:43.056Z,3.46
2023-11-24T12:42:12.055Z,3.51
2023-11-24T12:44:40.756Z,3.46
2023-11-24T12:47:10.238Z,3.55
2023-11-24T12:49:58.622Z,4.10
2023-11-24T12:52:26.410Z,3.79
2023-11-24T12:54:55.139Z,4.09
2023-11-24T12:57:23.707Z,3.95
2023-11-24T12:59:51.257Z,4.22
2023-11-24T13:02:19.186Z,4.12
2023-11-24T13:04:47.107Z,4.31
2023-11-24T13:07:17.946Z,4.08
2023-11-24T13:09:46.444Z,4.07
2023-11-24T13:12:18.551Z,3.85
2023-11-24T13:14:47.228Z,4.02
2023-11-24T13:17:14.987Z,3.77
2023-11-24T13:19:43.616Z,3.79
2023-11-24T13:22:12.358Z,3.83
2023-11-24T13:24:42.212Z,3.90
2023-11-24T13:27:10.906Z,4.01
2023-11-24T13:29:43.348Z,3.90
2023-11-24T13:32:12.491Z,3.93
2023-11-24T13:34:40.931Z,4.11
2023-11-24T13:37:09.130Z,4.04
2023-11-24T13:39:36.982Z,3.94
2023-11-24T13:42:06.472Z,3.76
2023-11-24T13:44:35.751Z,3.97
2023-11-24T13:47:03.568Z,3.97
2023-11-24T13:49:31.240Z,3.76
2023-11-24T13:51:58.907Z,3.76
2023-11-24T13:54:29.746Z,3.90
2023-11-24T13:56:57.251Z,3.81
2023-11-24T13:59:26.659Z,3.99
2023-11-24T14:01:55.541Z,3.90
2023-11-24T14:04:23.380Z,3.85
2023-11-24T14:06:54.522Z,3.91
2023-11-24T14:09:30.453Z,3.84
2023-11-24T14:11:59.660Z,3.79
2023-11-24T14:14:29.953Z,3.79
2023-11-24T14:16:57.768Z,3.73
2023-11-24T14:19:25.497Z,3.82
2023-11-24T14:21:56.775Z,3.64
2023-11-24T14:24:25.214Z,3.81
2023-11-24T14:26:52.972Z,3.74
2023-11-24T14:29:20.485Z,3.75
2023-11-24T14:31:49.600Z,3.90
2023-11-24T14:34:20.194Z,3.81
2023-11-24T14:36:48.151Z,3.81
2023-11-24T14:39:26.383Z,3.81
2023-11-24T14:41:55.490Z,3.80
2023-11-24T14:44:23.032Z,3.83
2023-11-24T14:46:52.263Z,3.69
2023-11-24T14:49:20.091Z,3.76
2023-11-24T14:51:49.251Z,3.75
2023-11-24T14:54:18.036Z,3.76
2023-11-24T14:56:46.741Z,3.67
2023-11-24T14:59:14.551Z,2.52
2023-11-24T15:01:43.958Z,1.36
2023-11-24T15:04:17.923Z,1.65
2023-11-24T15:06:51.370Z,1.16
2023-11-24T15:09:20.821Z,0.88
2023-11-24T15:11:52.896Z,1.34
2023-11-24T15:14:32.421Z,1.04
2023-11-24T15:17:04.274Z,1.43
2023-11-24T15:19:34.828Z,1.35
2023-11-24T15:22:06.633Z,1.08
2023-11-24T15:24:34.640Z,1.29
2023-11-24T15:27:05.226Z,1.47
2023-11-24T15:29:33.824Z,1.60
2023-11-24T15:32:01.576Z,0.90
2023-11-24T15:34:30.186Z,1.30
2023-11-24T15:36:59.170Z,1.34
2023-11-24T15:39:41.403Z,1.10
2023-11-24T15:42:09.506Z,1.71
2023-11-24T15:44:38.198Z,1.98
2023-11-24T15:47:08.773Z,1.67
2023-11-24T15:49:37.975Z,1.30
2023-11-24T15:52:09.449Z,1.61
2023-11-24T15:54:37.043Z,1.72
2023-11-24T15:57:05.130Z,1.73
2023-11-24T15:59:38.128Z,1.47
2023-11-24T16:02:05.592Z,1.54
2023-11-24T16:04:35.562Z,1.62
2023-11-24T16:07:07.530Z,1.78
2023-11-24T16:09:36.571Z,1.98
2023-11-24T16:12:06.300Z,1.35
2023-11-24T16:14:35.335Z,1.67
2023-11-24T16:17:03.353Z,2.13
2023-11-24T16:19:31.277Z,1.55
2023-11-24T16:21:59.214Z,2.63
2023-11-24T16:24:27.648Z,2.05
2023-11-24T16:26:56.893Z,1.99
2023-11-24T16:29:25.350Z,1.68
2023-11-24T16:31:55.539Z,1.88
2023-11-24T16:34:26.126Z,1.66
2023-11-24T16:36:56.039Z,1.93
2023-11-24T16:39:24.639Z,1.59
2023-11-24T16:41:52.550Z,1.63
2023-11-24T16:44:22.170Z,1.45
2023-11-24T16:46:57.572Z,1.87
2023-11-24T16:49:25.478Z,1.87
2023-11-24T16:51:53.996Z,2.61
2023-11-24T16:54:21.801Z,2.10
2023-11-24T16:56:49.966Z,2.40
2023-11-24T16:59:19.866Z,2.36
2023-11-24T17:01:50.281Z,1.86
2023-11-24T17:04:18.283Z,1.96
2023-11-24T17:06:49.427Z,1.70
2023-11-24T17:09:19.395Z,1.64
2023-11-24T17:11:47.009Z,1.63
2023-11-24T17:14:15.347Z,1.61
2023-11-24T17:16:43.510Z,1.48
2023-11-24T17:19:13.719Z,2.07
2023-11-24T17:21:44.407Z,1.61
2023-11-24T17:24:12.474Z,1.53
2023-11-24T17:26:42.497Z,1.99
2023-11-24T17:29:13.785Z,1.84
2023-11-24T17:31:43.089Z,1.92
2023-11-24T17:34:12.846Z,1.97
2023-11-24T17:36:40.650Z,1.52
2023-11-24T17:39:10.096Z,2.16
2023-11-24T17:41:38.064Z,1.82
2023-11-24T17:44:10.503Z,1.84
2023-11-24T17:46:39.708Z,1.70
2023-11-24T17:49:07.849Z,1.28
2023-11-24T17:51:38.488Z,1.42
2023-11-24T17:54:06.680Z,1.69
2023-11-24T17:56:34.292Z,1.35
2023-11-24T17:59:02.127Z,1.58
2023-11-24T18:01:29.778Z,1.51
2023-11-24T18:03:57.418Z,2.02
2023-11-24T18:06:26.135Z,2.12
2023-11-24T18:08:56.483Z,1.88
2023-11-24T18:11:24.107Z,1.70
2023-11-24T18:13:51.673Z,1.65
2023-11-24T18:16:19.271Z,1.60
2023-11-24T18:18:47.347Z,1.63
2023-11-24T18:21:15.059Z,1.87
2023-11-24T18:23:45.852Z,1.76
2023-11-24T18:26:14.967Z,1.71
2023-11-24T18:28:45.364Z,1.86
2023-11-24T18:31:13.616Z,2.06
2023-11-24T18:33:41.479Z,1.89
2023-11-24T18:36:09.662Z,1.76
2023-11-24T18:38:37.203Z,1.62
2023-11-24T18:41:04.758Z,1.74
2023-11-24T18:43:39.584Z,1.75
2023-11-24T18:46:08.921Z,1.78
2023-11-24T18:48:36.706Z,1.68
2023-11-24T18:51:04.399Z,1.51
2023-11-24T18:53:31.975Z,1.61
2023-11-24T18:55:59.724Z,1.64
2023-11-24T18:58:27.403Z,1.53
2023-11-24T19:00:56.352Z,1.39
2023-11-24T19:03:25.211Z,1.55
2023-11-24T19:05:52.759Z,1.48
2023-11-24T19:08:20.313Z,1.57
2023-11-24T19:10:48.742Z,1.40
2023-11-24T19:13:18.286Z,1.31
2023-11-24T19:15:46.351Z,1.53
2023-11-24T19:18:15.547Z,1.55
2023-11-24T19:20:43.068Z,1.69
2023-11-24T19:23:10.590Z,1.36
2023-11-24T19:25:38.385Z,1.80
2023-11-24T19:28:06.079Z,1.86
2023-11-24T19:30:34.702Z,1.88
2023-11-24T19:33:02.354Z,1.79
2023-11-24T19:35:31.276Z,1.66
2023-11-24T19:37:58.815Z,1.60
2023-11-24T19:40:26.506Z,1.60
2023-11-24T19:42:54.133Z,1.84
2023-11-24T19:45:21.699Z,1.59
2023-11-24T19:47:49.329Z,1.79
2023-11-24T19:50:17.365Z,1.93
2023-11-24T19:52:46.253Z,1.82
2023-11-24T19:55:13.824Z,1.76
2023-11-24T19:57:41.447Z,1.89
2023-11-24T20:00:11.025Z,1.59
2023-11-24T20:02:38.883Z,1.81
2023-11-24T20:05:07.734Z,1.87
2023-11-24T20:07:35.388Z,1.60
2023-11-24T20:10:06.151Z,1.83
2023-11-24T20:12:33.783Z,1.62
2023-11-24T20:15:01.343Z,1.75
2023-11-24T20:17:28.973Z,1.85
2023-11-24T20:19:57.405Z,1.47
2023-11-24T20:22:25.439Z,1.81
2023-11-24T20:24:53.057Z,1.80
2023-11-24T20:27:22.455Z,1.61
2023-11-24T20:29:50.120Z,1.78
2023-11-24T20:32:17.640Z,1.69
2023-11-24T20:34:45.279Z,1.68
2023-11-24T20:37:15.455Z,1.72
2023-11-24T20:39:44.585Z,1.89
2023-11-24T20:42:12.523Z,1.88
2023-11-24T20:44:41.381Z,1.78
2023-11-24T20:47:09.300Z,1.89
2023-11-24T20:49:36.897Z,1.95
2023-11-24T20:52:06.502Z,1.74
2023-11-24T20:54:34.235Z,1.78
2023-11-24T20:57:01.964Z,1.61
2023-11-24T20:59:29.724Z,1.91
2023-11-24T21:01:58.739Z,1.73
2023-11-24T21:04:26.892Z,1.77
2023-11-24T21:06:55.126Z,1.66
2023-11-24T21:09:23.452Z,1.57
2023-11-24T21:11:51.014Z,1.49
2023-11-24T21:14:18.605Z,2.02
2023-11-24T21:16:46.163Z,1.52
2023-11-24T21:19:15.801Z,1.75
2023-11-24T21:21:44.316Z,1.48
2023-11-24T21:24:13.132Z,1.58
2023-11-24T21:26:40.780Z,1.78
2023-11-24T21:29:08.302Z,1.50
2023-11-24T21:31:36.063Z,1.43
2023-11-24T21:34:03.700Z,1.50
2023-11-24T21:36:32.790Z,1.89
2023-11-24T21:39:00.953Z,1.61
2023-11-24T21:41:29.539Z,1.72
2023-11-24T21:43:57.074Z,1.38
2023-11-24T21:46:26.425Z,1.51
2023-11-24T21:48:54.085Z,1.41
2023-11-24T21:51:21.687Z,1.63
2023-11-24T21:53:50.532Z,1.77
2023-11-24T21:56:24.990Z,1.73
2023-11-24T21:58:53.529Z,1.76
2023-11-24T22:01:21.440Z,1.54
2023-11-24T22:03:49.775Z,1.51
2023-11-24T22:06:22.521Z,1.61
2023-11-24T22:08:51.882Z,1.73
2023-11-24T22:11:19.501Z,1.89
2023-11-24T22:13:47.139Z,1.52
2023-11-24T22:16:14.845Z,1.52
2023-11-24T22:18:42.387Z,1.72
2023-11-24T22:21:09.956Z,1.51
2023-11-24T22:23:37.548Z,1.77
2023-11-24T22:26:06.461Z,1.75
2023-11-24T22:28:34.024Z,1.57
2023-11-24T22:31:00.661Z,1.29
2023-11-24T22:33:28.235Z,1.61
2023-11-24T22:35:55.741Z,1.26
2023-11-24T22:38:23.250Z,1.49
2023-11-24T22:40:50.779Z,1.52
2023-11-24T22:43:20.151Z,1.59
2023-11-24T22:45:48.249Z,1.56
2023-11-24T22:48:15.845Z,1.56
2023-11-24T22:50:43.448Z,1.56
2023-11-24T22:53:12.459Z,1.43
2023-11-24T22:55:40.933Z,1.45
2023-11-24T22:58:08.531Z,1.72
2023-11-24T23:00:40.502Z,1.41
2023-11-24T23:03:10.005Z,1.37
2023-11-24T23:05:37.673Z,1.19
2023-11-24T23:08:05.660Z,1.20
2023-11-24T23:10:35.951Z,1.13
2023-11-24T23:13:04.568Z,1.23
2023-11-24T23:15:32.474Z,0.78
2023-11-24T23:18:01.818Z,0.91
2023-11-24T23:20:29.842Z,1.02
2023-11-24T23:22:57.613Z,1.05
2023-11-24T23:25:25.414Z,0.83
2023-11-24T23:27:53.036Z,0.94
2023-11-24T23:30:20.589Z,1.08
2023-11-24T23:32:49.798Z,0.87
2023-11-24T23:35:18.824Z,0.86
2023-11-24T23:37:46.455Z,0.95
2023-11-24T23:40:15.642Z,0.82
2023-11-24T23:42:45.700Z,0.74
2023-11-24T23:45:14.833Z,0.83
2023-11-24T23:47:42.906Z,0.99
2023-11-24T23:50:11.992Z,0.25
2023-11-24T23:52:41.024Z,0.64
2023-11-24T23:55:08.925Z,0.50
2023-11-24T23:57:38.164Z,0.37
